sensor_id;sensor_type;location;lat;lon;timestamp;pressure;altitude;pressure_sealevel;temperature;humidity
41044;BME280;51680;49.806;18.774;2023-06-14T00:01:42;97277.59;;;11.58;89.02
41044;BME280;51680;49.806;18.774;2023-06-14T00:04:46;97274.56;;;11.52;90.18
41044;BME280;51680;49.806;18.774;2023-06-14T00:07:50;97277.19;;;11.52;90.08
41044;BME280;51680;49.806;18.774;2023-06-14T00:10:53;97273.22;;;11.46;90.28
41044;BME280;51680;49.806;18.774;2023-06-14T00:13:55;97271.75;;;11.42;90.42
41044;BME280;51680;49.806;18.774;2023-06-14T00:16:57;97277.72;;;11.44;90.14
41044;BME280;51680;49.806;18.774;2023-06-14T00:19:59;97275.50;;;11.38;90.68
41044;BME280;51680;49.806;18.774;2023-06-14T00:23:24;97271.75;;;11.30;90.79
41044;BME280;51680;49.806;18.774;2023-06-14T00:26:25;97265.69;;;11.29;91.22
41044;BME280;51680;49.806;18.774;2023-06-14T00:29:27;97266.09;;;11.36;89.80
41044;BME280;51680;49.806;18.774;2023-06-14T00:32:30;97270.69;;;11.45;88.79
41044;BME280;51680;49.806;18.774;2023-06-14T00:35:32;97272.56;;;11.55;87.66
41044;BME280;51680;49.806;18.774;2023-06-14T00:38:35;97270.69;;;11.70;87.25
41044;BME280;51680;49.806;18.774;2023-06-14T00:41:37;97275.59;;;11.74;87.25
41044;BME280;51680;49.806;18.774;2023-06-14T00:44:40;97264.63;;;11.69;87.43
41044;BME280;51680;49.806;18.774;2023-06-14T00:47:42;97260.66;;;11.64;87.68
41044;BME280;51680;49.806;18.774;2023-06-14T00:50:45;97265.06;;;11.63;87.74
41044;BME280;51680;49.806;18.774;2023-06-14T00:53:51;97264.84;;;11.66;87.89
41044;BME280;51680;49.806;18.774;2023-06-14T00:56:53;97266.00;;;11.62;88.09
41044;BME280;51680;49.806;18.774;2023-06-14T00:59:55;97268.84;;;11.47;89.77
41044;BME280;51680;49.806;18.774;2023-06-14T01:02:57;97269.75;;;11.33;91.09
41044;BME280;51680;49.806;18.774;2023-06-14T01:06:05;97266.19;;;11.34;90.68
41044;BME280;51680;49.806;18.774;2023-06-14T01:09:17;97263.19;;;11.40;90.53
41044;BME280;51680;49.806;18.774;2023-06-14T01:12:24;97268.19;;;11.43;90.89
41044;BME280;51680;49.806;18.774;2023-06-14T01:15:30;97269.69;;;11.22;93.52
41044;BME280;51680;49.806;18.774;2023-06-14T01:18:32;97271.16;;;11.01;95.85
41044;BME280;51680;49.806;18.774;2023-06-14T01:21:36;97273.22;;;10.96;96.88
41044;BME280;51680;49.806;18.774;2023-06-14T01:24:43;97265.34;;;10.84;97.93
41044;BME280;51680;49.806;18.774;2023-06-14T01:27:47;97264.81;;;10.66;100.00
41044;BME280;51680;49.806;18.774;2023-06-14T01:30:52;97269.44;;;10.75;98.92
41044;BME280;51680;49.806;18.774;2023-06-14T01:33:54;97269.66;;;10.72;99.39
41044;BME280;51680;49.806;18.774;2023-06-14T01:37:00;97274.19;;;10.56;100.00
41044;BME280;51680;49.806;18.774;2023-06-14T01:40:07;97268.84;;;10.45;100.00
41044;BME280;51680;49.806;18.774;2023-06-14T01:43:10;97268.66;;;10.48;100.00
41044;BME280;51680;49.806;18.774;2023-06-14T01:46:14;97271.03;;;10.51;100.00
41044;BME280;51680;49.806;18.774;2023-06-14T01:49:16;97269.56;;;10.47;100.00
41044;BME280;51680;49.806;18.774;2023-06-14T01:52:18;97268.25;;;10.54;100.00
41044;BME280;51680;49.806;18.774;2023-06-14T01:55:21;97269.06;;;10.55;100.00
41044;BME280;51680;49.806;18.774;2023-06-14T01:58:25;97268.78;;;10.59;100.00
41044;BME280;51680;49.806;18.774;2023-06-14T02:01:26;97266.88;;;10.61;100.00
41044;BME280;51680;49.806;18.774;2023-06-14T02:04:28;97273.25;;;10.57;100.00
41044;BME280;51680;49.806;18.774;2023-06-14T02:07:30;97273.16;;;10.59;100.00
41044;BME280;51680;49.806;18.774;2023-06-14T02:10:33;97269.38;;;10.50;100.00
41044;BME280;51680;49.806;18.774;2023-06-14T02:13:35;97275.19;;;10.41;100.00
41044;BME280;51680;49.806;18.774;2023-06-14T02:16:36;97276.22;;;10.39;100.00
41044;BME280;51680;49.806;18.774;2023-06-14T02:19:46;97271.09;;;10.37;100.00
41044;BME280;51680;49.806;18.774;2023-06-14T02:22:48;97267.38;;;10.41;100.00
41044;BME280;51680;49.806;18.774;2023-06-14T02:25:51;97269.19;;;10.53;100.00
41044;BME280;51680;49.806;18.774;2023-06-14T02:28:53;97262.94;;;10.56;100.00
41044;BME280;51680;49.806;18.774;2023-06-14T02:31:55;97265.94;;;10.62;100.00
41044;BME280;51680;49.806;18.774;2023-06-14T02:34:56;97260.88;;;10.73;100.00
41044;BME280;51680;49.806;18.774;2023-06-14T02:37:58;97266.09;;;10.86;100.00
41044;BME280;51680;49.806;18.774;2023-06-14T02:41:02;97265.41;;;10.96;99.90
41044;BME280;51680;49.806;18.774;2023-06-14T02:44:04;97261.50;;;10.89;99.94
41044;BME280;51680;49.806;18.774;2023-06-14T02:47:07;97258.19;;;11.00;99.19
41044;BME280;51680;49.806;18.774;2023-06-14T02:50:08;97253.78;;;11.13;98.23
41044;BME280;51680;49.806;18.774;2023-06-14T02:53:11;97261.75;;;11.11;98.08
41044;BME280;51680;49.806;18.774;2023-06-14T02:56:15;97259.13;;;11.11;98.05
41044;BME280;51680;49.806;18.774;2023-06-14T02:59:18;97260.47;;;11.04;97.71
41044;BME280;51680;49.806;18.774;2023-06-14T03:02:22;97255.44;;;10.89;100.00
41044;BME280;51680;49.806;18.774;2023-06-14T03:05:23;97264.75;;;10.93;99.19
41044;BME280;51680;49.806;18.774;2023-06-14T03:08:26;97260.78;;;11.00;98.19
41044;BME280;51680;49.806;18.774;2023-06-14T03:11:33;97267.50;;;11.04;97.53
41044;BME280;51680;49.806;18.774;2023-06-14T03:14:35;97269.34;;;11.14;97.70
41044;BME280;51680;49.806;18.774;2023-06-14T03:17:37;97265.91;;;11.26;97.45
41044;BME280;51680;49.806;18.774;2023-06-14T03:20:40;97271.84;;;11.28;96.98
41044;BME280;51680;49.806;18.774;2023-06-14T03:23:43;97265.47;;;11.32;96.51
41044;BME280;51680;49.806;18.774;2023-06-14T03:26:46;97271.84;;;11.28;96.88
41044;BME280;51680;49.806;18.774;2023-06-14T03:29:49;97268.69;;;11.48;96.03
41044;BME280;51680;49.806;18.774;2023-06-14T03:32:51;97272.47;;;11.57;94.47
41044;BME280;51680;49.806;18.774;2023-06-14T03:35:56;97271.47;;;11.59;93.84
41044;BME280;51680;49.806;18.774;2023-06-14T03:38:58;97261.91;;;11.58;93.64
41044;BME280;51680;49.806;18.774;2023-06-14T03:42:01;97268.31;;;11.54;93.39
41044;BME280;51680;49.806;18.774;2023-06-14T03:45:04;97278.00;;;11.52;93.63
41044;BME280;51680;49.806;18.774;2023-06-14T03:48:06;97276.53;;;11.48;93.15
41044;BME280;51680;49.806;18.774;2023-06-14T03:51:09;97287.00;;;11.48;92.56
41044;BME280;51680;49.806;18.774;2023-06-14T03:54:12;97283.03;;;11.55;92.77
41044;BME280;51680;49.806;18.774;2023-06-14T03:57:16;97296.00;;;11.69;91.99
41044;BME280;51680;49.806;18.774;2023-06-14T04:00:19;97298.53;;;11.58;93.15
41044;BME280;51680;49.806;18.774;2023-06-14T04:03:20;97290.56;;;11.72;92.75
41044;BME280;51680;49.806;18.774;2023-06-14T04:06:30;97290.16;;;11.78;92.03
41044;BME280;51680;49.806;18.774;2023-06-14T04:09:33;97296.81;;;11.95;91.66
41044;BME280;51680;49.806;18.774;2023-06-14T04:12:36;97286.91;;;12.11;91.39
41044;BME280;51680;49.806;18.774;2023-06-14T04:15:38;97290.75;;;12.18;90.41
41044;BME280;51680;49.806;18.774;2023-06-14T04:18:42;97301.41;;;12.27;90.08
41044;BME280;51680;49.806;18.774;2023-06-14T04:21:44;97290.53;;;12.21;91.08
41044;BME280;51680;49.806;18.774;2023-06-14T04:24:47;97296.94;;;12.17;91.50
41044;BME280;51680;49.806;18.774;2023-06-14T04:27:51;97298.50;;;12.19;91.88
41044;BME280;51680;49.806;18.774;2023-06-14T04:30:54;97295.34;;;11.91;91.24
41044;BME280;51680;49.806;18.774;2023-06-14T04:33:56;97299.34;;;11.71;91.63
41044;BME280;51680;49.806;18.774;2023-06-14T04:36:58;97294.34;;;11.68;92.16
41044;BME280;51680;49.806;18.774;2023-06-14T04:40:08;97304.38;;;11.74;92.50
41044;BME280;51680;49.806;18.774;2023-06-14T04:43:13;97296.94;;;11.81;92.40
41044;BME280;51680;49.806;18.774;2023-06-14T04:46:18;97301.31;;;11.80;92.58
41044;BME280;51680;49.806;18.774;2023-06-14T04:49:20;97295.25;;;11.92;92.01
41044;BME280;51680;49.806;18.774;2023-06-14T04:52:23;97306.06;;;12.11;90.95
41044;BME280;51680;49.806;18.774;2023-06-14T04:55:27;97294.66;;;12.12;91.78
41044;BME280;51680;49.806;18.774;2023-06-14T04:58:31;97305.63;;;12.17;91.04
41044;BME280;51680;49.806;18.774;2023-06-14T05:01:34;97306.59;;;12.40;90.45
41044;BME280;51680;49.806;18.774;2023-06-14T05:04:36;97301.06;;;12.55;90.10
41044;BME280;51680;49.806;18.774;2023-06-14T05:07:40;97295.88;;;12.66;90.11
41044;BME280;51680;49.806;18.774;2023-06-14T05:10:42;97307.34;;;12.76;89.83
41044;BME280;51680;49.806;18.774;2023-06-14T05:13:45;97300.56;;;12.97;89.61
41044;BME280;51680;49.806;18.774;2023-06-14T05:16:48;97307.97;;;13.14;89.03
41044;BME280;51680;49.806;18.774;2023-06-14T05:19:50;97309.91;;;13.34;88.54
41044;BME280;51680;49.806;18.774;2023-06-14T05:22:52;97312.09;;;13.40;88.43
41044;BME280;51680;49.806;18.774;2023-06-14T05:25:54;97309.94;;;13.45;88.13
41044;BME280;51680;49.806;18.774;2023-06-14T05:28:58;97312.09;;;13.62;87.71
41044;BME280;51680;49.806;18.774;2023-06-14T05:32:01;97324.75;;;13.79;87.75
41044;BME280;51680;49.806;18.774;2023-06-14T05:35:03;97330.44;;;14.06;86.85
41044;BME280;51680;49.806;18.774;2023-06-14T05:38:06;97328.06;;;14.25;86.15
41044;BME280;51680;49.806;18.774;2023-06-14T05:41:08;97324.69;;;14.45;85.63
41044;BME280;51680;49.806;18.774;2023-06-14T05:44:11;97333.34;;;14.68;84.99
41044;BME280;51680;49.806;18.774;2023-06-14T05:47:13;97325.75;;;14.85;84.61
41044;BME280;51680;49.806;18.774;2023-06-14T05:50:14;97333.75;;;14.84;83.92
41044;BME280;51680;49.806;18.774;2023-06-14T05:53:16;97319.25;;;15.00;83.87
41044;BME280;51680;49.806;18.774;2023-06-14T05:56:18;97324.41;;;15.22;83.05
41044;BME280;51680;49.806;18.774;2023-06-14T05:59:21;97330.63;;;15.42;82.46
41044;BME280;51680;49.806;18.774;2023-06-14T06:02:23;97325.59;;;15.59;82.19
41044;BME280;51680;49.806;18.774;2023-06-14T06:05:25;97331.09;;;15.77;81.42
41044;BME280;51680;49.806;18.774;2023-06-14T06:08:26;97331.06;;;15.97;81.05
41044;BME280;51680;49.806;18.774;2023-06-14T06:11:28;97332.09;;;16.15;80.41
41044;BME280;51680;49.806;18.774;2023-06-14T06:14:32;97331.84;;;16.28;79.83
41044;BME280;51680;49.806;18.774;2023-06-14T06:17:33;97339.22;;;16.34;79.19
41044;BME280;51680;49.806;18.774;2023-06-14T06:20:35;97344.34;;;16.35;79.07
41044;BME280;51680;49.806;18.774;2023-06-14T06:23:37;97344.22;;;16.37;78.88
41044;BME280;51680;49.806;18.774;2023-06-14T06:26:39;97342.19;;;16.40;79.22
41044;BME280;51680;49.806;18.774;2023-06-14T06:29:43;97346.09;;;16.46;79.01
41044;BME280;51680;49.806;18.774;2023-06-14T06:32:45;97349.72;;;16.54;78.74
41044;BME280;51680;49.806;18.774;2023-06-14T06:35:46;97352.69;;;16.70;78.42
41044;BME280;51680;49.806;18.774;2023-06-14T06:38:48;97351.31;;;16.85;78.11
41044;BME280;51680;49.806;18.774;2023-06-14T06:41:50;97351.56;;;17.01;77.80
41044;BME280;51680;49.806;18.774;2023-06-14T06:45:03;97359.22;;;17.23;77.18
41044;BME280;51680;49.806;18.774;2023-06-14T06:48:05;97359.75;;;17.36;75.95
41044;BME280;51680;49.806;18.774;2023-06-14T06:51:07;97363.50;;;17.62;76.40
41044;BME280;51680;49.806;18.774;2023-06-14T06:54:08;97366.13;;;17.81;75.54
41044;BME280;51680;49.806;18.774;2023-06-14T06:57:10;97368.13;;;17.97;75.11
41044;BME280;51680;49.806;18.774;2023-06-14T07:00:14;97368.50;;;18.11;74.30
41044;BME280;51680;49.806;18.774;2023-06-14T07:03:16;97363.75;;;18.24;73.89
41044;BME280;51680;49.806;18.774;2023-06-14T07:06:18;97371.22;;;18.39;73.30
41044;BME280;51680;49.806;18.774;2023-06-14T07:09:22;97367.13;;;18.44;72.92
41044;BME280;51680;49.806;18.774;2023-06-14T07:12:25;97370.19;;;18.49;73.03
41044;BME280;51680;49.806;18.774;2023-06-14T07:15:28;97374.34;;;18.52;72.81
41044;BME280;51680;49.806;18.774;2023-06-14T07:18:29;97370.31;;;18.48;72.99
41044;BME280;51680;49.806;18.774;2023-06-14T07:21:31;97374.09;;;18.45;72.89
41044;BME280;51680;49.806;18.774;2023-06-14T07:24:33;97384.06;;;18.34;72.85
41044;BME280;51680;49.806;18.774;2023-06-14T07:27:36;97384.28;;;18.30;73.27
41044;BME280;51680;49.806;18.774;2023-06-14T07:30:39;97373.72;;;18.30;73.26
41044;BME280;51680;49.806;18.774;2023-06-14T07:33:42;97383.75;;;18.37;73.43
41044;BME280;51680;49.806;18.774;2023-06-14T07:36:43;97386.69;;;18.61;73.05
41044;BME280;51680;49.806;18.774;2023-06-14T07:39:45;97380.47;;;18.79;71.89
41044;BME280;51680;49.806;18.774;2023-06-14T07:42:47;97387.16;;;19.01;71.66
41044;BME280;51680;49.806;18.774;2023-06-14T07:45:52;97384.06;;;19.23;70.65
41044;BME280;51680;49.806;18.774;2023-06-14T07:48:54;97374.94;;;19.35;69.69
41044;BME280;51680;49.806;18.774;2023-06-14T07:51:55;97378.59;;;19.59;69.23
41044;BME280;51680;49.806;18.774;2023-06-14T07:54:57;97377.34;;;20.14;67.63
41044;BME280;51680;49.806;18.774;2023-06-14T07:57:59;97363.13;;;20.57;66.33
41044;BME280;51680;49.806;18.774;2023-06-14T08:01:21;97371.16;;;20.81;65.04
41044;BME280;51680;49.806;18.774;2023-06-14T08:04:25;97373.38;;;20.93;64.69
41044;BME280;51680;49.806;18.774;2023-06-14T08:07:27;97368.28;;;21.08;63.97
41044;BME280;51680;49.806;18.774;2023-06-14T08:10:29;97373.13;;;21.20;63.90
41044;BME280;51680;49.806;18.774;2023-06-14T08:13:31;97361.16;;;21.56;62.88
41044;BME280;51680;49.806;18.774;2023-06-14T08:16:34;97356.59;;;22.29;61.17
41044;BME280;51680;49.806;18.774;2023-06-14T08:19:35;97354.53;;;23.16;58.67
41044;BME280;51680;49.806;18.774;2023-06-14T08:22:37;97350.22;;;23.60;57.29
41044;BME280;51680;49.806;18.774;2023-06-14T08:25:40;97354.88;;;23.66;56.81
41044;BME280;51680;49.806;18.774;2023-06-14T08:28:41;97353.84;;;23.67;56.75
41044;BME280;51680;49.806;18.774;2023-06-14T08:31:44;97358.44;;;23.73;56.38
41044;BME280;51680;49.806;18.774;2023-06-14T08:34:46;97362.59;;;24.12;55.90
41044;BME280;51680;49.806;18.774;2023-06-14T08:37:49;97357.09;;;23.77;54.04
41044;BME280;51680;49.806;18.774;2023-06-14T08:40:52;97371.63;;;22.99;55.70
41044;BME280;51680;49.806;18.774;2023-06-14T08:43:54;97371.88;;;22.51;56.47
41044;BME280;51680;49.806;18.774;2023-06-14T08:46:59;97367.22;;;22.45;56.85
41044;BME280;51680;49.806;18.774;2023-06-14T08:50:01;97365.88;;;22.49;57.38
41044;BME280;51680;49.806;18.774;2023-06-14T08:53:06;97360.38;;;22.42;57.23
41044;BME280;51680;49.806;18.774;2023-06-14T08:56:10;97363.94;;;22.27;57.56
41044;BME280;51680;49.806;18.774;2023-06-14T08:59:14;97371.28;;;22.09;58.04
41044;BME280;51680;49.806;18.774;2023-06-14T09:02:18;97377.47;;;21.93;58.73
41044;BME280;51680;49.806;18.774;2023-06-14T09:05:22;97382.81;;;21.77;58.80
41044;BME280;51680;49.806;18.774;2023-06-14T09:08:25;97377.97;;;21.65;58.95
41044;BME280;51680;49.806;18.774;2023-06-14T09:11:26;97377.47;;;21.61;58.72
41044;BME280;51680;49.806;18.774;2023-06-14T09:14:28;97377.63;;;21.68;58.81
41044;BME280;51680;49.806;18.774;2023-06-14T09:17:34;97380.47;;;21.82;58.28
41044;BME280;51680;49.806;18.774;2023-06-14T09:20:37;97372.31;;;22.00;57.90
41044;BME280;51680;49.806;18.774;2023-06-14T09:23:39;97370.97;;;22.12;57.51
41044;BME280;51680;49.806;18.774;2023-06-14T09:26:42;97374.44;;;22.20;57.55
41044;BME280;51680;49.806;18.774;2023-06-14T09:29:44;97370.22;;;22.26;56.67
41044;BME280;51680;49.806;18.774;2023-06-14T09:32:47;97372.19;;;22.40;56.11
41044;BME280;51680;49.806;18.774;2023-06-14T09:35:53;97374.22;;;22.46;54.45
41044;BME280;51680;49.806;18.774;2023-06-14T09:38:56;97367.47;;;22.66;55.69
41044;BME280;51680;49.806;18.774;2023-06-14T09:41:59;97374.66;;;22.88;55.58
41044;BME280;51680;49.806;18.774;2023-06-14T09:45:02;97371.41;;;23.08;54.78
41044;BME280;51680;49.806;18.774;2023-06-14T09:48:06;97362.47;;;23.32;54.53
41044;BME280;51680;49.806;18.774;2023-06-14T09:51:09;97361.91;;;23.59;54.92
41044;BME280;51680;49.806;18.774;2023-06-14T09:54:15;97374.03;;;23.84;54.55
41044;BME280;51680;49.806;18.774;2023-06-14T09:57:22;97369.50;;;23.84;53.98
41044;BME280;51680;49.806;18.774;2023-06-14T10:00:26;97367.41;;;23.80;53.86
41044;BME280;51680;49.806;18.774;2023-06-14T10:03:30;97367.88;;;23.83;54.14
41044;BME280;51680;49.806;18.774;2023-06-14T10:06:36;97362.28;;;23.93;53.84
41044;BME280;51680;49.806;18.774;2023-06-14T10:09:38;97360.81;;;23.90;54.53
41044;BME280;51680;49.806;18.774;2023-06-14T10:12:44;97368.00;;;23.90;54.44
41044;BME280;51680;49.806;18.774;2023-06-14T10:15:54;97368.31;;;23.87;53.61
41044;BME280;51680;49.806;18.774;2023-06-14T10:19:05;97367.19;;;23.67;53.88
41044;BME280;51680;49.806;18.774;2023-06-14T10:22:12;97368.72;;;23.61;53.99
41044;BME280;51680;49.806;18.774;2023-06-14T10:25:28;97365.44;;;23.96;53.63
41044;BME280;51680;49.806;18.774;2023-06-14T10:28:31;97361.06;;;24.47;53.47
41044;BME280;51680;49.806;18.774;2023-06-14T10:31:42;97355.72;;;24.76;51.87
41044;BME280;51680;49.806;18.774;2023-06-14T10:34:53;97350.06;;;25.00;51.26
41044;BME280;51680;49.806;18.774;2023-06-14T10:38:06;97350.59;;;24.95;52.45
41044;BME280;51680;49.806;18.774;2023-06-14T10:41:09;97352.22;;;24.75;52.50
41044;BME280;51680;49.806;18.774;2023-06-14T10:44:42;97353.41;;;24.73;50.50
41044;BME280;51680;49.806;18.774;2023-06-14T10:47:48;97347.25;;;24.72;51.64
41044;BME280;51680;49.806;18.774;2023-06-14T10:51:01;97351.59;;;24.59;50.91
41044;BME280;51680;49.806;18.774;2023-06-14T10:54:03;97351.50;;;24.67;51.91
41044;BME280;51680;49.806;18.774;2023-06-14T10:57:06;97339.25;;;24.72;51.60
41044;BME280;51680;49.806;18.774;2023-06-14T11:00:10;97345.50;;;24.50;51.43
41044;BME280;51680;49.806;18.774;2023-06-14T11:03:33;97338.50;;;24.35;51.09
41044;BME280;51680;49.806;18.774;2023-06-14T11:06:48;97346.16;;;24.38;52.61
41044;BME280;51680;49.806;18.774;2023-06-14T11:10:03;97340.25;;;24.57;52.16
41044;BME280;51680;49.806;18.774;2023-06-14T11:13:07;97344.41;;;24.59;52.07
41044;BME280;51680;49.806;18.774;2023-06-14T11:16:12;97348.53;;;24.33;52.34
41044;BME280;51680;49.806;18.774;2023-06-14T11:19:15;97349.75;;;24.30;51.85
41044;BME280;51680;49.806;18.774;2023-06-14T11:22:19;97344.78;;;24.42;51.93
41044;BME280;51680;49.806;18.774;2023-06-14T11:25:21;97341.06;;;24.57;51.12
41044;BME280;51680;49.806;18.774;2023-06-14T11:28:23;97343.94;;;24.56;51.50
41044;BME280;51680;49.806;18.774;2023-06-14T11:31:25;97340.25;;;24.57;51.26
41044;BME280;51680;49.806;18.774;2023-06-14T11:34:27;97337.13;;;24.39;50.36
41044;BME280;51680;49.806;18.774;2023-06-14T11:37:31;97333.34;;;24.19;50.80
41044;BME280;51680;49.806;18.774;2023-06-14T11:40:34;97334.84;;;24.21;50.48
41044;BME280;51680;49.806;18.774;2023-06-14T11:43:36;97324.78;;;24.38;49.77
41044;BME280;51680;49.806;18.774;2023-06-14T11:46:38;97328.28;;;24.38;50.33
41044;BME280;51680;49.806;18.774;2023-06-14T11:49:40;97321.66;;;24.20;51.67
41044;BME280;51680;49.806;18.774;2023-06-14T11:52:43;97325.25;;;24.12;51.54
41044;BME280;51680;49.806;18.774;2023-06-14T11:55:46;97326.09;;;24.13;51.58
41044;BME280;51680;49.806;18.774;2023-06-14T11:58:48;97320.09;;;24.11;51.41
41044;BME280;51680;49.806;18.774;2023-06-14T12:01:50;97313.75;;;24.26;51.07
41044;BME280;51680;49.806;18.774;2023-06-14T12:04:54;97321.81;;;24.47;50.98
41044;BME280;51680;49.806;18.774;2023-06-14T12:08:00;97312.81;;;24.63;49.53
41044;BME280;51680;49.806;18.774;2023-06-14T12:11:02;97312.81;;;24.77;49.60
41044;BME280;51680;49.806;18.774;2023-06-14T12:14:05;97310.22;;;24.55;48.62
41044;BME280;51680;49.806;18.774;2023-06-14T12:17:07;97298.47;;;24.06;47.72
41044;BME280;51680;49.806;18.774;2023-06-14T12:20:11;97306.28;;;23.93;50.21
41044;BME280;51680;49.806;18.774;2023-06-14T12:23:15;97307.22;;;24.00;50.63
41044;BME280;51680;49.806;18.774;2023-06-14T12:26:19;97301.34;;;23.90;51.06
41044;BME280;51680;49.806;18.774;2023-06-14T12:29:21;97308.19;;;23.84;51.17
41044;BME280;51680;49.806;18.774;2023-06-14T12:32:24;97303.13;;;23.38;50.89
41044;BME280;51680;49.806;18.774;2023-06-14T12:35:26;97302.59;;;23.20;49.87
41044;BME280;51680;49.806;18.774;2023-06-14T12:38:29;97307.69;;;22.76;48.99
41044;BME280;51680;49.806;18.774;2023-06-14T12:41:31;97295.56;;;22.74;50.06
41044;BME280;51680;49.806;18.774;2023-06-14T12:44:33;97296.81;;;22.86;51.40
41044;BME280;51680;49.806;18.774;2023-06-14T12:47:40;97284.84;;;23.04;52.67
41044;BME280;51680;49.806;18.774;2023-06-14T12:50:42;97288.56;;;23.26;53.06
41044;BME280;51680;49.806;18.774;2023-06-14T12:53:46;97292.69;;;23.28;53.06
41044;BME280;51680;49.806;18.774;2023-06-14T12:56:47;97291.03;;;23.05;51.80
41044;BME280;51680;49.806;18.774;2023-06-14T12:59:51;97285.34;;;23.08;50.59
41044;BME280;51680;49.806;18.774;2023-06-14T13:02:53;97292.69;;;23.06;51.48
41044;BME280;51680;49.806;18.774;2023-06-14T13:05:55;97288.41;;;22.36;50.53
41044;BME280;51680;49.806;18.774;2023-06-14T13:08:58;97277.13;;;21.87;49.18
41044;BME280;51680;49.806;18.774;2023-06-14T13:12:01;97280.78;;;21.78;50.59
41044;BME280;51680;49.806;18.774;2023-06-14T13:15:21;97277.66;;;21.75;51.38
41044;BME280;51680;49.806;18.774;2023-06-14T13:18:23;97269.25;;;22.02;51.67
41044;BME280;51680;49.806;18.774;2023-06-14T13:21:25;97269.81;;;22.36;50.91
41044;BME280;51680;49.806;18.774;2023-06-14T13:24:28;97272.09;;;22.39;50.42
41044;BME280;51680;49.806;18.774;2023-06-14T13:27:31;97268.84;;;22.21;51.00
41044;BME280;51680;49.806;18.774;2023-06-14T13:30:33;97260.97;;;22.35;51.71
41044;BME280;51680;49.806;18.774;2023-06-14T13:33:35;97258.03;;;22.61;51.46
41044;BME280;51680;49.806;18.774;2023-06-14T13:36:37;97259.00;;;22.90;50.37
41044;BME280;51680;49.806;18.774;2023-06-14T13:39:40;97258.16;;;23.20;50.22
41044;BME280;51680;49.806;18.774;2023-06-14T13:42:42;97251.59;;;23.45;49.81
41044;BME280;51680;49.806;18.774;2023-06-14T13:45:43;97258.50;;;23.69;50.13
41044;BME280;51680;49.806;18.774;2023-06-14T13:48:45;97259.66;;;23.89;49.60
41044;BME280;51680;49.806;18.774;2023-06-14T13:51:48;97251.66;;;24.03;48.84
41044;BME280;51680;49.806;18.774;2023-06-14T13:54:51;97257.25;;;24.23;48.01
41044;BME280;51680;49.806;18.774;2023-06-14T13:57:53;97253.34;;;24.40;47.75
41044;BME280;51680;49.806;18.774;2023-06-14T14:00:54;97248.78;;;24.34;46.99
41044;BME280;51680;49.806;18.774;2023-06-14T14:03:57;97253.09;;;24.35;45.66
41044;BME280;51680;49.806;18.774;2023-06-14T14:07:01;97256.41;;;24.37;45.92
41044;BME280;51680;49.806;18.774;2023-06-14T14:10:05;97259.53;;;24.40;45.88
41044;BME280;51680;49.806;18.774;2023-06-14T14:13:07;97264.03;;;24.40;46.69
41044;BME280;51680;49.806;18.774;2023-06-14T14:16:08;97260.34;;;24.41;45.97
41044;BME280;51680;49.806;18.774;2023-06-14T14:19:11;97257.94;;;24.46;46.36
41044;BME280;51680;49.806;18.774;2023-06-14T14:22:12;97258.88;;;24.53;46.12
41044;BME280;51680;49.806;18.774;2023-06-14T14:25:16;97256.81;;;24.55;46.03
41044;BME280;51680;49.806;18.774;2023-06-14T14:28:17;97258.78;;;24.46;46.97
41044;BME280;51680;49.806;18.774;2023-06-14T14:31:20;97264.16;;;24.32;47.93
41044;BME280;51680;49.806;18.774;2023-06-14T14:34:24;97258.91;;;24.24;47.92
41044;BME280;51680;49.806;18.774;2023-06-14T14:37:26;97262.69;;;24.15;48.12
41044;BME280;51680;49.806;18.774;2023-06-14T14:40:29;97264.47;;;24.08;48.10
41044;BME280;51680;49.806;18.774;2023-06-14T14:43:31;97263.25;;;23.96;49.17
41044;BME280;51680;49.806;18.774;2023-06-14T14:46:33;97262.13;;;23.90;49.00
41044;BME280;51680;49.806;18.774;2023-06-14T14:49:34;97258.28;;;23.93;49.66
41044;BME280;51680;49.806;18.774;2023-06-14T14:52:36;97267.09;;;23.93;49.67
41044;BME280;51680;49.806;18.774;2023-06-14T14:55:39;97261.78;;;23.93;48.89
41044;BME280;51680;49.806;18.774;2023-06-14T14:58:41;97266.97;;;23.87;48.99
41044;BME280;51680;49.806;18.774;2023-06-14T15:01:43;97261.09;;;23.77;49.25
41044;BME280;51680;49.806;18.774;2023-06-14T15:04:46;97263.56;;;23.64;49.34
41044;BME280;51680;49.806;18.774;2023-06-14T15:07:47;97260.88;;;23.49;49.56
41044;BME280;51680;49.806;18.774;2023-06-14T15:10:50;97253.50;;;23.37;50.14
41044;BME280;51680;49.806;18.774;2023-06-14T15:13:52;97247.59;;;23.27;50.45
41044;BME280;51680;49.806;18.774;2023-06-14T15:16:54;97255.66;;;23.19;50.40
41044;BME280;51680;49.806;18.774;2023-06-14T15:19:56;97251.66;;;23.15;50.68
41044;BME280;51680;49.806;18.774;2023-06-14T15:22:58;97252.31;;;23.17;50.88
41044;BME280;51680;49.806;18.774;2023-06-14T15:26:01;97244.66;;;23.22;50.90
41044;BME280;51680;49.806;18.774;2023-06-14T15:29:03;97252.25;;;23.25;51.18
41044;BME280;51680;49.806;18.774;2023-06-14T15:32:06;97257.41;;;23.26;50.57
41044;BME280;51680;49.806;18.774;2023-06-14T15:35:08;97249.25;;;23.28;50.36
41044;BME280;51680;49.806;18.774;2023-06-14T15:38:10;97249.16;;;23.36;50.75
41044;BME280;51680;49.806;18.774;2023-06-14T15:41:13;97240.81;;;23.39;50.46
41044;BME280;51680;49.806;18.774;2023-06-14T15:44:14;97244.16;;;23.41;49.75
41044;BME280;51680;49.806;18.774;2023-06-14T15:47:16;97236.78;;;23.43;49.59
41044;BME280;51680;49.806;18.774;2023-06-14T15:50:18;97248.75;;;23.47;49.28
41044;BME280;51680;49.806;18.774;2023-06-14T15:53:21;97246.25;;;23.45;49.49
41044;BME280;51680;49.806;18.774;2023-06-14T15:56:25;97240.81;;;23.39;49.74
41044;BME280;51680;49.806;18.774;2023-06-14T15:59:27;97237.41;;;23.30;49.70